Time;durP1;ratioP1;P1;durP2;ratioP2;P2;SDS_P1;SDS_P2;PMS_P1;PMS_P2;Temp;Humidity;BMP_temperature;BMP_pressure;BME280_temperature;BME280_humidity;BME280_pressure;Samples;Min_cycle;Max_cycle;Signal;HPM_P1;HPM_P2
2022/09/12 00:01:39;;;;;;;10.13;6.78;;;;;;;9.65;100.00;98821.94;4235459;28;20070;-72
2022/09/12 00:03:40;;;;;;;10.32;6.65;;;;;;;9.66;100.00;98819.97;4235073;28;20066;-72
2022/09/12 00:05:45;;;;;;;9.82;6.82;;;;;;;9.68;100.00;98824.00;4235359;28;20043;-72
2022/09/12 00:07:45;;;;;;;10.35;6.75;;;;;;;9.71;100.00;98812.22;4235411;28;20054;-72
2022/09/12 00:09:46;;;;;;;9.50;6.90;;;;;;;9.76;100.00;98819.38;4235484;28;20043;-72
2022/09/12 00:11:46;;;;;;;10.27;6.53;;;;;;;9.73;100.00;98820.13;4235503;28;20092;-72
2022/09/12 00:13:47;;;;;;;9.63;6.70;;;;;;;9.68;100.00;98812.94;4235195;28;20314;-72
2022/09/12 00:15:47;;;;;;;8.93;6.45;;;;;;;9.63;100.00;98821.50;4235707;28;20517;-72
2022/09/12 00:17:47;;;;;;;11.43;7.32;;;;;;;9.59;100.00;98809.56;4235250;28;20162;-72
2022/09/12 00:19:48;;;;;;;10.40;7.03;;;;;;;9.60;100.00;98810.38;4234391;28;20067;-72
2022/09/12 00:21:48;;;;;;;10.60;7.30;;;;;;;9.61;100.00;98803.72;4235550;28;20039;-72
2022/09/12 00:23:49;;;;;;;10.98;6.63;;;;;;;9.60;100.00;98811.19;4235720;28;20455;-72
2022/09/12 00:25:50;;;;;;;10.93;6.72;;;;;;;9.56;100.00;98811.13;4235005;28;20298;-72
2022/09/12 00:27:50;;;;;;;9.02;6.65;;;;;;;9.53;100.00;98800.00;4235871;28;20055;-72
2022/09/12 00:29:50;;;;;;;10.98;6.95;;;;;;;9.55;99.32;98805.97;4234326;28;20075;-72
2022/09/12 00:31:51;;;;;;;10.32;6.60;;;;;;;9.54;100.00;98812.66;4234724;28;20038;-72
2022/09/12 00:33:55;;;;;;;10.27;7.72;;;;;;;9.54;100.00;98810.69;4234935;28;20043;-72
2022/09/12 00:35:55;;;;;;;9.65;6.53;;;;;;;9.60;100.00;98813.13;4235997;27;20050;-72
2022/09/12 00:37:56;;;;;;;10.65;6.97;;;;;;;9.64;100.00;98817.59;4238776;27;20039;-72
2022/09/12 00:39:56;;;;;;;14.77;7.45;;;;;;;9.68;100.00;98814.88;4237534;27;20081;-72
2022/09/12 00:41:56;;;;;;;10.25;6.97;;;;;;;9.69;100.00;98809.00;4238501;27;20044;-72
2022/09/12 00:44:00;;;;;;;11.90;7.15;;;;;;;9.72;100.00;98808.28;4238763;27;20783;-72
2022/09/12 00:46:15;;;;;;;9.82;7.18;;;;;;;9.68;100.00;98806.59;4237407;27;20640;-72
2022/09/12 00:48:33;;;;;;;9.15;6.43;;;;;;;9.61;100.00;98795.44;4238500;27;20471;-72
2022/09/12 00:50:34;;;;;;;10.10;7.03;;;;;;;9.55;100.00;98800.44;4238230;27;20047;-72
2022/09/12 00:52:38;;;;;;;10.55;7.13;;;;;;;9.51;100.00;98797.56;4238035;27;20133;-72
2022/09/12 00:54:53;;;;;;;10.10;6.40;;;;;;;9.45;100.00;98793.53;4237933;27;20065;-72
2022/09/12 00:57:00;;;;;;;11.27;6.63;;;;;;;9.40;100.00;98795.78;4238128;27;20107;-72
2022/09/12 00:59:07;;;;;;;8.80;6.47;;;;;;;9.32;100.00;98794.00;4237423;27;20051;-72
2022/09/12 01:01:07;;;;;;;12.77;6.57;;;;;;;9.27;100.00;98798.69;4237585;27;20077;-73
2022/09/12 01:03:14;;;;;;;10.02;6.35;;;;;;;9.26;100.00;98801.78;4238106;27;20577;-72
2022/09/12 01:05:15;;;;;;;8.50;6.15;;;;;;;9.23;100.00;98792.25;4237759;27;20035;-72
2022/09/12 01:07:16;;;;;;;10.43;6.43;;;;;;;9.25;100.00;98797.41;4237822;27;20081;-72
2022/09/12 01:09:21;;;;;;;14.43;5.70;;;;;;;9.26;100.00;98799.00;4237780;27;20051;-72
2022/09/12 01:11:21;;;;;;;10.20;6.10;;;;;;;9.25;100.00;98786.38;4237984;27;20133;-72
2022/09/12 01:13:22;;;;;;;11.13;6.40;;;;;;;9.18;100.00;98783.47;4237951;27;20079;-72
2022/09/12 01:15:22;;;;;;;10.15;6.47;;;;;;;9.18;100.00;98792.53;4236822;27;20046;-72
2022/09/12 01:17:30;;;;;;;9.77;6.13;;;;;;;9.20;100.00;98792.19;4237937;27;20043;-72
2022/09/12 01:19:50;;;;;;;8.23;5.60;;;;;;;9.20;100.00;98786.69;4237517;27;20131;-72
2022/09/12 01:21:53;;;;;;;8.32;5.72;;;;;;;9.27;99.70;98787.63;4236901;27;20123;-72
2022/09/12 01:24:13;;;;;;;9.15;5.78;;;;;;;9.21;99.23;98783.56;4237832;27;20046;-72
2022/09/12 01:26:26;;;;;;;11.90;6.57;;;;;;;9.14;99.83;98782.59;4237084;27;20035;-72
2022/09/12 01:28:26;;;;;;;8.77;6.45;;;;;;;9.04;100.00;98777.66;4218068;28;20056;-72
2022/09/12 01:31:03;;;;;;;8.13;5.90;;;;;;;8.98;100.00;98780.66;4237134;27;20161;-72
2022/09/12 01:33:22;;;;;;;9.63;5.80;;;;;;;8.86;100.00;98785.53;4237851;27;20074;-72
2022/09/12 01:35:26;;;;;;;8.10;6.03;;;;;;;8.84;100.00;98788.63;4237445;27;20065;-72
2022/09/12 01:37:48;;;;;;;10.13;5.45;;;;;;;8.88;100.00;98786.75;4238054;27;20043;-72
2022/09/12 01:40:27;;;;;;;7.32;5.85;;;;;;;8.87;100.00;98782.41;4236931;27;20058;-72
2022/09/12 01:42:40;;;;;;;6.95;5.15;;;;;;;8.89;100.00;98777.31;4236417;27;20263;-72
2022/09/12 01:45:17;;;;;;;7.82;5.38;;;;;;;8.87;100.00;98771.38;4235912;27;20435;-72
2022/09/12 01:47:26;;;;;;;7.85;5.70;;;;;;;8.78;100.00;98775.47;4235261;27;20540;-72
2022/09/12 01:49:41;;;;;;;8.30;5.85;;;;;;;8.70;100.00;98780.81;4237101;27;20058;-72
2022/09/12 01:52:11;;;;;;;8.00;5.30;;;;;;;8.65;100.00;98772.81;4237135;27;20074;-72
2022/09/12 01:54:19;;;;;;;7.38;5.35;;;;;;;8.56;100.00;98771.41;4235504;27;20118;-72
2022/09/12 01:56:29;;;;;;;7.47;5.40;;;;;;;8.48;100.00;98781.47;4236911;27;20069;-72
2022/09/12 01:58:40;;;;;;;8.15;6.35;;;;;;;8.41;100.00;98770.25;4235562;27;20138;-72
2022/09/12 02:00:47;;;;;;;10.65;5.80;;;;;;;8.38;100.00;98773.72;4237377;27;20522;-71
2022/09/12 02:03:02;;;;;;;9.13;6.53;;;;;;;8.33;100.00;98772.00;4237362;27;20477;-71
2022/09/12 02:05:16;;;;;;;10.80;7.03;;;;;;;8.29;100.00;98762.84;4236666;27;20142;-71
2022/09/12 02:07:29;;;;;;;10.57;6.78;;;;;;;8.33;100.00;98762.94;4236444;27;20054;-71
2022/09/12 02:09:55;;;;;;;8.45;5.90;;;;;;;8.31;100.00;98759.75;4236538;27;20099;-72
2022/09/12 02:11:59;;;;;;;10.63;7.05;;;;;;;8.33;100.00;98760.19;4236536;27;20051;-72
2022/09/12 02:14:02;;;;;;;9.48;6.45;;;;;;;8.29;100.00;98764.81;4236137;27;20453;-72
2022/09/12 02:16:09;;;;;;;10.30;6.90;;;;;;;8.26;100.00;98771.03;4236793;27;20050;-71
2022/09/12 02:18:13;;;;;;;8.82;5.80;;;;;;;8.31;100.00;98762.50;4236240;27;20060;-71
2022/09/12 02:20:14;;;;;;;7.80;6.00;;;;;;;8.36;100.00;98760.31;4236075;27;20443;-71
2022/09/12 02:22:17;;;;;;;7.45;5.57;;;;;;;8.38;100.00;98758.00;4236992;27;20484;-72
2022/09/12 02:24:22;;;;;;;8.25;5.40;;;;;;;8.30;100.00;98760.91;4236323;27;20358;-71
2022/09/12 02:26:27;;;;;;;9.40;6.28;;;;;;;8.16;100.00;98770.41;4236587;27;20043;-71
2022/09/12 02:28:32;;;;;;;9.35;6.03;;;;;;;8.00;100.00;98755.81;4235102;27;20070;-71
2022/09/12 02:30:40;;;;;;;8.77;6.05;;;;;;;7.97;100.00;98764.78;4218087;28;20052;-71
2022/09/12 02:32:50;;;;;;;11.32;6.30;;;;;;;7.97;100.00;98758.47;4236759;27;20050;-71
2022/09/12 02:35:19;;;;;;;8.27;6.32;;;;;;;7.87;100.00;98760.59;4233679;27;20583;-71
2022/09/12 02:37:52;;;;;;;10.32;6.07;;;;;;;7.77;100.00;98752.84;4227118;27;20051;-71
2022/09/12 02:39:55;;;;;;;8.47;5.57;;;;;;;7.70;100.00;98760.13;4233194;27;20051;-71
2022/09/12 02:41:59;;;;;;;8.48;5.95;;;;;;;7.66;100.00;98750.97;4236429;27;20100;-71
2022/09/12 02:44:02;;;;;;;9.00;6.28;;;;;;;7.67;100.00;98753.34;4234567;27;20043;-71
2022/09/12 02:46:09;;;;;;;9.88;6.65;;;;;;;7.68;100.00;98748.66;4234010;27;20069;-71
2022/09/12 02:48:17;;;;;;;8.38;5.50;;;;;;;7.70;100.00;98749.13;4235431;27;20424;-71
2022/09/12 02:50:17;;;;;;;8.00;6.43;;;;;;;7.63;100.00;98738.69;4234506;27;20467;-72
2022/09/12 02:52:18;;;;;;;7.72;5.45;;;;;;;7.58;100.00;98752.72;4236002;27;20278;-72
2022/09/12 02:54:19;;;;;;;8.55;5.70;;;;;;;7.52;100.00;98741.13;4235881;27;20290;-72
2022/09/12 02:56:26;;;;;;;7.60;5.10;;;;;;;7.52;100.00;98748.59;4235496;27;20015;-71
2022/09/12 02:58:30;;;;;;;9.20;5.57;;;;;;;7.49;100.00;98752.06;4234493;27;20228;-72
2022/09/12 03:00:36;;;;;;;8.23;5.97;;;;;;;7.47;100.00;98751.63;4235860;27;20444;-72
2022/09/12 03:02:58;;;;;;;7.70;5.60;;;;;;;7.43;100.00;98750.72;4234814;27;20039;-71
2022/09/12 03:05:17;;;;;;;8.07;5.43;;;;;;;7.43;100.00;98750.72;4229960;27;20066;-72
2022/09/12 03:07:20;;;;;;;10.25;5.65;;;;;;;7.42;100.00;98746.34;4233813;27;20592;-71
2022/09/12 03:09:42;;;;;;;7.30;5.68;;;;;;;7.38;100.00;98749.03;4234842;27;20078;-71
2022/09/12 03:12:06;;;;;;;9.53;5.87;;;;;;;7.36;100.00;98747.75;4234337;27;20122;-71
2022/09/12 03:14:51;;;;;;;8.02;5.35;;;;;;;7.32;100.00;98744.91;4234994;27;20101;-71
2022/09/12 03:16:55;;;;;;;9.18;5.55;;;;;;;7.28;100.00;98746.75;4188728;27;20081;-71
2022/09/12 03:19:14;;;;;;;9.00;5.30;;;;;;;7.24;100.00;98748.59;4235875;27;20035;-71
2022/09/12 03:21:49;;;;;;;8.60;5.55;;;;;;;7.22;100.00;98742.66;4234317;27;20430;-71
2022/09/12 03:24:12;;;;;;;8.80;5.65;;;;;;;7.17;100.00;98749.19;4231756;27;20510;-71
2022/09/12 03:26:22;;;;;;;8.85;5.88;;;;;;;7.14;100.00;98740.84;4234590;28;20040;-71
2022/09/12 03:28:22;;;;;;;10.65;5.65;;;;;;;7.12;100.00;98743.97;4233710;28;20421;-71
2022/09/12 03:30:23;;;;;;;11.73;7.20;;;;;;;7.12;100.00;98743.97;4235072;28;20114;-72
2022/09/12 03:32:59;;;;;;;9.15;6.32;;;;;;;7.14;100.00;98738.91;4234712;28;20344;-71
2022/09/12 03:34:59;;;;;;;8.13;5.68;;;;;;;7.19;100.00;98737.84;4164032;28;20072;-71
2022/09/12 03:37:00;;;;;;;7.65;5.10;;;;;;;7.20;100.00;98733.94;4200942;28;20078;-71
2022/09/12 03:39:00;;;;;;;8.48;5.25;;;;;;;7.17;100.00;98740.13;4231900;28;20081;-72
2022/09/12 03:41:00;;;;;;;9.18;6.20;;;;;;;7.15;100.00;98748.75;4235063;28;20114;-71
2022/09/12 03:43:01;;;;;;;8.60;5.75;;;;;;;7.09;100.00;98752.88;4234366;28;20134;-71
2022/09/12 03:45:02;;;;;;;9.75;6.25;;;;;;;7.04;100.00;98748.44;4235297;28;20071;-71
2022/09/12 03:47:02;;;;;;;9.30;5.65;;;;;;;7.06;100.00;98755.53;4233727;28;20051;-71
2022/09/12 03:49:02;;;;;;;7.28;5.47;;;;;;;7.07;100.00;98754.41;4233924;28;20122;-71
2022/09/12 03:51:06;;;;;;;8.40;5.55;;;;;;;7.00;100.00;98747.53;4233778;28;20314;-71
2022/09/12 03:53:06;;;;;;;9.77;4.93;;;;;;;6.93;100.00;98744.56;4234376;28;20043;-71
2022/09/12 03:55:07;;;;;;;7.60;5.53;;;;;;;6.94;100.00;98748.09;4233509;28;20618;-71
2022/09/12 03:57:07;;;;;;;6.43;4.60;;;;;;;6.95;100.00;98738.69;4234647;28;20127;-71
2022/09/12 03:59:07;;;;;;;7.13;5.28;;;;;;;7.00;100.00;98739.28;4235233;28;20265;-71
2022/09/12 04:01:13;;;;;;;7.38;4.88;;;;;;;6.98;100.00;98740.78;4235841;28;20142;-71
2022/09/12 04:03:13;;;;;;;7.38;4.40;;;;;;;6.95;100.00;98741.44;4235705;28;20509;-71
2022/09/12 04:05:14;;;;;;;7.07;4.50;;;;;;;6.91;100.00;98732.31;4235381;28;20073;-71
2022/09/12 04:07:15;;;;;;;6.28;4.82;;;;;;;6.87;100.00;98745.13;4236360;28;20066;-71
2022/09/12 04:09:16;;;;;;;5.40;4.30;;;;;;;6.87;100.00;98742.38;4235514;28;20569;-71
2022/09/12 04:11:17;;;;;;;6.57;4.63;;;;;;;6.88;100.00;98746.75;4237945;27;20082;-71
2022/09/12 04:13:18;;;;;;;6.77;4.63;;;;;;;6.90;100.00;98736.22;4238835;27;20469;-71
2022/09/12 04:15:18;;;;;;;6.13;4.85;;;;;;;6.98;100.00;98744.31;4239281;27;20078;-71
2022/09/12 04:17:18;;;;;;;8.30;4.75;;;;;;;7.06;100.00;98739.84;4239153;27;20047;-71
2022/09/12 04:19:19;;;;;;;6.90;4.93;;;;;;;7.10;100.00;98740.72;4239003;27;20467;-71
2022/09/12 04:21:21;;;;;;;7.07;5.15;;;;;;;7.12;100.00;98741.22;4239350;27;20101;-71
2022/09/12 04:23:22;;;;;;;5.97;4.60;;;;;;;7.07;100.00;98741.44;4239190;27;20046;-71
2022/09/12 04:25:22;;;;;;;7.35;4.80;;;;;;;7.02;100.00;98747.97;4238656;27;20051;-71
2022/09/12 04:27:23;;;;;;;11.77;4.90;;;;;;;6.95;100.00;98747.78;4239043;27;20035;-71
2022/09/12 04:29:23;;;;;;;9.07;4.95;;;;;;;6.86;100.00;98760.84;4238997;27;20047;-71
2022/09/12 04:31:24;;;;;;;6.50;5.20;;;;;;;6.81;100.00;98750.09;4238744;27;20345;-71
2022/09/12 04:33:25;;;;;;;6.55;4.72;;;;;;;6.81;100.00;98761.09;4238990;27;20080;-71
2022/09/12 04:35:26;;;;;;;6.68;4.97;;;;;;;6.77;100.00;98743.66;4238803;27;20364;-71
2022/09/12 04:37:26;;;;;;;7.07;5.40;;;;;;;6.75;100.00;98755.03;4239755;27;20463;-71
2022/09/12 04:39:27;;;;;;;7.15;5.40;;;;;;;6.71;100.00;98759.63;4237985;27;20072;-71
2022/09/12 04:41:39;;;;;;;8.05;4.57;;;;;;;6.73;100.00;98751.03;4220273;28;20039;-71
2022/09/12 04:43:40;;;;;;;8.05;5.10;;;;;;;6.77;100.00;98754.66;4238553;27;20066;-71
2022/09/12 04:45:40;;;;;;;8.13;5.22;;;;;;;6.81;100.00;98749.28;4238222;27;20127;-71
2022/09/12 04:47:41;;;;;;;8.23;5.40;;;;;;;6.77;100.00;98746.41;4238894;27;20051;-70
2022/09/12 04:49:41;;;;;;;8.38;5.20;;;;;;;6.76;100.00;98755.81;4238401;27;20403;-70
2022/09/12 04:51:43;;;;;;;10.18;5.80;;;;;;;6.68;100.00;98749.28;4238358;27;20378;-70
2022/09/12 04:53:48;;;;;;;8.10;5.55;;;;;;;6.69;100.00;98755.59;4219915;28;20055;-71
2022/09/12 04:55:48;;;;;;;6.22;4.75;;;;;;;6.69;100.00;98750.09;4239226;27;20497;-71
2022/09/12 04:57:48;;;;;;;8.25;5.18;;;;;;;6.66;100.00;98754.34;4238526;27;20079;-71
2022/09/12 04:59:49;;;;;;;7.50;5.28;;;;;;;6.61;100.00;98754.56;4237932;27;20527;-71
2022/09/12 05:01:49;;;;;;;7.00;5.28;;;;;;;6.68;100.00;98748.50;4239040;27;20193;-71
2022/09/12 05:03:50;;;;;;;8.25;5.38;;;;;;;6.73;100.00;98751.81;4237906;27;20039;-71
2022/09/12 05:05:50;;;;;;;9.65;6.05;;;;;;;6.68;100.00;98741.03;4238553;27;20038;-71
2022/09/12 05:07:51;;;;;;;7.47;4.40;;;;;;;6.65;100.00;98750.00;4238549;27;20103;-72
2022/09/12 05:09:51;;;;;;;8.00;4.78;;;;;;;6.61;100.00;98756.53;4237984;27;20050;-71
2022/09/12 05:11:51;;;;;;;7.70;5.47;;;;;;;6.53;100.00;98758.25;4238357;27;20047;-71
2022/09/12 05:13:52;;;;;;;8.43;5.03;;;;;;;6.50;100.00;98766.38;4237692;27;20270;-71
2022/09/12 05:15:54;;;;;;;10.23;5.07;;;;;;;6.44;100.00;98768.56;4238738;27;20106;-72
2022/09/12 05:17:54;;;;;;;6.35;5.25;;;;;;;6.41;100.00;98763.75;4237908;27;20133;-71
2022/09/12 05:19:54;;;;;;;8.35;4.88;;;;;;;6.43;100.00;98767.75;4237569;27;20485;-71
2022/09/12 05:21:55;;;;;;;8.43;5.22;;;;;;;6.44;100.00;98771.31;4237914;27;20114;-72
2022/09/12 05:23:58;;;;;;;7.40;5.25;;;;;;;6.40;100.00;98762.97;4237777;27;20039;-72
2022/09/12 05:26:00;;;;;;;5.72;4.40;;;;;;;6.38;100.00;98762.50;4238142;27;20384;-71
2022/09/12 05:28:00;;;;;;;6.35;4.70;;;;;;;6.39;100.00;98777.84;4238140;27;20396;-72
2022/09/12 05:30:01;;;;;;;7.00;4.53;;;;;;;6.39;100.00;98768.81;4237214;27;20050;-72
2022/09/12 05:32:02;;;;;;;5.90;4.47;;;;;;;6.45;100.00;98786.66;4237503;27;20179;-71
2022/09/12 05:34:03;;;;;;;7.63;4.32;;;;;;;6.47;100.00;98781.63;4237485;27;20046;-72
2022/09/12 05:36:06;;;;;;;5.53;4.00;;;;;;;6.51;100.00;98788.03;4237233;27;20023;-72
2022/09/12 05:38:07;;;;;;;5.93;4.75;;;;;;;6.54;100.00;98775.53;4238681;27;20340;-72
2022/09/12 05:40:07;;;;;;;6.28;4.57;;;;;;;6.56;100.00;98782.31;4236698;27;20034;-71
2022/09/12 05:42:08;;;;;;;6.90;5.10;;;;;;;6.60;100.00;98785.97;4237137;27;20114;-72
2022/09/12 05:44:13;;;;;;;6.45;4.60;;;;;;;6.64;100.00;98783.34;4237748;27;20033;-71
2022/09/12 05:46:16;;;;;;;6.95;4.82;;;;;;;6.69;100.00;98778.41;4236593;27;20031;-71
2022/09/12 05:48:16;;;;;;;6.25;5.15;;;;;;;6.73;100.00;98776.56;4178165;27;20037;-71
2022/09/12 05:50:16;;;;;;;6.60;4.93;;;;;;;6.78;100.00;98781.03;4234703;27;20054;-71
2022/09/12 05:52:17;;;;;;;9.45;6.32;;;;;;;6.80;100.00;98780.69;4237199;27;20445;-71
2022/09/12 05:54:19;;;;;;;16.08;9.45;;;;;;;6.88;100.00;98782.53;4238016;27;20467;-71
2022/09/12 05:56:22;;;;;;;12.85;8.50;;;;;;;6.91;100.00;98782.63;4237477;27;20301;-71
2022/09/12 05:58:22;;;;;;;14.20;9.73;;;;;;;6.99;100.00;98783.63;4236716;27;20051;-71
2022/09/12 06:00:23;;;;;;;17.27;10.02;;;;;;;7.11;100.00;98778.09;4237072;27;20558;-71
2022/09/12 06:02:23;;;;;;;19.50;12.50;;;;;;;7.19;100.00;98777.16;4237805;27;20047;-71
2022/09/12 06:04:24;;;;;;;17.65;13.38;;;;;;;7.29;100.00;98782.19;4237419;27;20039;-71
2022/09/12 06:06:24;;;;;;;16.05;10.80;;;;;;;7.37;100.00;98777.69;4236650;27;20483;-71
2022/09/12 06:08:24;;;;;;;15.40;9.20;;;;;;;7.44;100.00;98777.09;4237269;27;20054;-71
2022/09/12 06:10:25;;;;;;;10.00;7.72;;;;;;;7.47;100.00;98777.19;4236789;27;20114;-71
2022/09/12 06:12:28;;;;;;;10.52;6.95;;;;;;;7.55;100.00;98778.22;4237287;27;20031;-71
2022/09/12 06:14:29;;;;;;;8.77;7.07;;;;;;;7.63;100.00;98788.28;4237170;27;20146;-71
2022/09/12 06:16:31;;;;;;;9.25;7.95;;;;;;;7.69;100.00;98786.03;4237396;27;20062;-71
2022/09/12 06:18:31;;;;;;;10.00;6.88;;;;;;;7.75;100.00;98773.63;4235866;27;20347;-71
2022/09/12 06:20:32;;;;;;;10.07;6.40;;;;;;;7.80;100.00;98782.44;4236101;27;20493;-71
2022/09/12 06:22:33;;;;;;;11.32;6.18;;;;;;;7.87;100.00;98779.09;4235725;27;20373;-71
2022/09/12 06:24:33;;;;;;;9.98;7.13;;;;;;;7.94;100.00;98767.44;4219240;27;20043;-71
2022/09/12 06:26:34;;;;;;;13.75;9.57;;;;;;;8.02;100.00;98777.50;4235889;27;20055;-71
2022/09/12 06:28:37;;;;;;;19.35;10.82;;;;;;;8.10;100.00;98780.06;4235546;27;20475;-71
2022/09/12 06:30:37;;;;;;;16.75;9.45;;;;;;;8.21;100.00;98782.34;4236469;27;20325;-71
2022/09/12 06:32:38;;;;;;;16.25;9.43;;;;;;;8.31;100.00;98784.56;4236132;27;20498;-71
2022/09/12 06:34:38;;;;;;;18.77;10.75;;;;;;;8.39;100.00;98781.66;4234877;27;20511;-71
2022/09/12 06:36:42;;;;;;;13.80;8.30;;;;;;;8.47;100.00;98782.63;4217960;28;20042;-71
2022/09/12 06:38:45;;;;;;;15.02;9.65;;;;;;;8.55;100.00;98783.59;4235803;27;20043;-71
2022/09/12 06:40:45;;;;;;;12.30;6.82;;;;;;;8.62;100.00;98783.78;4236885;27;20047;-71
2022/09/12 06:42:46;;;;;;;9.40;6.60;;;;;;;8.69;100.00;98773.72;4236680;27;20368;-71
2022/09/12 06:44:47;;;;;;;10.13;6.60;;;;;;;8.76;100.00;98781.34;4236652;27;20096;-71
2022/09/12 06:46:48;;;;;;;12.30;7.18;;;;;;;8.82;100.00;98774.38;4237265;27;20039;-71
2022/09/12 06:48:49;;;;;;;12.35;6.75;;;;;;;8.90;100.00;98772.59;4235349;27;20035;-71
2022/09/12 06:51:06;;;;;;;12.00;6.28;;;;;;;8.98;100.00;98768.84;4236963;27;20039;-71
2022/09/12 06:53:06;;;;;;;11.68;6.88;;;;;;;9.04;100.00;98767.41;4237088;27;20422;-71
2022/09/12 06:55:07;;;;;;;9.98;6.72;;;;;;;9.12;100.00;98760.06;4236911;27;20035;-71
2022/09/12 06:57:07;;;;;;;12.15;7.25;;;;;;;9.20;100.00;98770.13;4236646;27;20649;-72
2022/09/12 06:59:08;;;;;;;12.25;7.03;;;;;;;9.29;100.00;98770.69;4236084;27;20067;-71
2022/09/12 07:01:21;;;;;;;16.25;7.97;;;;;;;9.37;100.00;98772.44;4236798;27;20054;-71
2022/09/12 07:03:22;;;;;;;11.50;7.10;;;;;;;9.44;100.00;98774.56;4236611;27;20090;-71
2022/09/12 07:05:22;;;;;;;12.20;6.88;;;;;;;9.50;100.00;98775.84;4236064;27;20035;-71
2022/09/12 07:07:23;;;;;;;9.90;6.35;;;;;;;9.54;100.00;98780.31;4236658;27;20414;-71
2022/09/12 07:09:23;;;;;;;11.90;7.82;;;;;;;9.63;100.00;98771.78;4236100;27;20415;-71
2022/09/12 07:11:26;;;;;;;12.38;7.82;;;;;;;9.74;100.00;98781.06;4236507;27;20490;-72
2022/09/12 07:13:26;;;;;;;15.95;8.57;;;;;;;9.82;100.00;98777.28;4236550;27;20364;-71
2022/09/12 07:15:28;;;;;;;13.63;8.50;;;;;;;9.94;100.00;98775.53;4236075;27;20074;-71
2022/09/12 07:17:28;;;;;;;15.00;9.07;;;;;;;10.04;100.00;98774.94;4236791;27;20065;-71
2022/09/12 07:19:28;;;;;;;12.07;8.02;;;;;;;10.11;100.00;98778.63;4235139;27;20043;-71
2022/09/12 07:21:29;;;;;;;12.77;7.88;;;;;;;10.17;100.00;98773.56;4235805;27;20395;-71
2022/09/12 07:23:30;;;;;;;10.20;6.88;;;;;;;10.27;100.00;98774.97;4236632;28;20161;-71
2022/09/12 07:25:30;;;;;;;9.25;6.65;;;;;;;10.32;100.00;98780.19;4236463;28;20487;-71
2022/09/12 07:27:30;;;;;;;9.00;6.88;;;;;;;10.37;100.00;98766.84;4236161;28;20051;-71
2022/09/12 07:29:31;;;;;;;10.93;7.30;;;;;;;10.45;100.00;98772.50;4235600;28;20043;-71
2022/09/12 07:31:32;;;;;;;14.15;8.02;;;;;;;10.53;100.00;98775.03;4236607;28;20451;-71
2022/09/12 07:33:32;;;;;;;11.95;7.90;;;;;;;10.62;100.00;98767.25;4235974;28;20086;-71
2022/09/12 07:35:33;;;;;;;12.57;9.05;;;;;;;10.72;100.00;98771.38;4235863;28;20116;-71
2022/09/12 07:37:33;;;;;;;14.20;8.60;;;;;;;10.82;100.00;98773.50;4237365;27;20051;-72
2022/09/12 07:39:33;;;;;;;11.57;8.30;;;;;;;10.91;100.00;98773.22;4235854;28;20040;-72
2022/09/12 07:41:33;;;;;;;10.18;7.63;;;;;;;10.98;100.00;98763.06;4236523;28;20048;-72
2022/09/12 07:43:34;;;;;;;14.20;7.97;;;;;;;11.06;100.00;98760.38;4236494;28;20637;-72
2022/09/12 07:45:34;;;;;;;10.02;7.22;;;;;;;11.14;100.00;98759.31;4236383;27;20050;-72
2022/09/12 07:47:35;;;;;;;15.27;9.45;;;;;;;11.24;100.00;98758.66;4239325;27;20054;-72
2022/09/12 07:49:35;;;;;;;10.93;8.10;;;;;;;11.35;100.00;98764.34;4220643;28;20055;-71
2022/09/12 07:51:36;;;;;;;12.20;8.27;;;;;;;11.40;100.00;98764.00;4240115;27;20053;-71
2022/09/12 07:53:39;;;;;;;13.30;8.43;;;;;;;11.47;100.00;98761.31;4239571;27;20044;-71
2022/09/12 07:55:39;;;;;;;12.60;8.15;;;;;;;11.52;100.00;98761.81;4238419;27;20482;-71
2022/09/12 07:57:40;;;;;;;14.63;8.93;;;;;;;11.61;100.00;98761.50;4239548;27;20063;-71
2022/09/12 07:59:41;;;;;;;12.18;8.40;;;;;;;11.69;100.00;98756.84;4239235;27;20711;-71
2022/09/12 08:01:41;;;;;;;14.57;9.32;;;;;;;11.76;100.00;98752.19;4220663;28;20306;-71
2022/09/12 08:03:46;;;;;;;18.50;10.63;;;;;;;11.91;100.00;98766.22;4239002;27;20086;-71
2022/09/12 08:05:46;;;;;;;13.95;9.70;;;;;;;12.01;100.00;98760.00;4239364;27;20044;-71
2022/09/12 08:07:46;;;;;;;12.90;8.30;;;;;;;12.07;100.00;98762.03;4239490;27;20112;-72
2022/09/12 08:09:47;;;;;;;12.05;8.40;;;;;;;12.14;100.00;98758.53;4238970;27;20067;-71
2022/09/12 08:11:47;;;;;;;16.00;9.88;;;;;;;12.23;100.00;98764.56;4238823;27;20130;-71
2022/09/12 08:13:49;;;;;;;14.20;10.23;;;;;;;12.30;100.00;98759.06;4238848;27;20046;-71
2022/09/12 08:15:49;;;;;;;15.23;9.43;;;;;;;12.39;100.00;98769.84;4238570;27;20165;-72
2022/09/12 08:17:50;;;;;;;14.18;9.20;;;;;;;12.48;100.00;98759.22;4239016;27;20079;-72
2022/09/12 08:19:51;;;;;;;14.90;10.18;;;;;;;12.58;100.00;98764.09;4239021;27;20082;-72
2022/09/12 08:21:51;;;;;;;13.00;9.30;;;;;;;12.68;99.64;98765.34;4239057;27;20094;-71
2022/09/12 08:23:54;;;;;;;16.77;9.30;;;;;;;12.80;99.90;98769.78;4238915;27;20130;-71
2022/09/12 08:25:58;;;;;;;;;;;;;;;12.95;99.92;98768.72;4239331;27;20031;-71
2022/09/12 08:28:00;;;;;;;14.65;9.30;;;;;;;13.07;99.17;98775.91;4239188;27;19911;-71
2022/09/12 08:30:00;;;;;;;13.47;8.80;;;;;;;13.12;96.27;98770.78;4238219;27;20039;-72
2022/09/12 08:32:02;;;;;;;14.05;9.68;;;;;;;13.20;97.33;98764.13;4238469;27;20582;-72
2022/09/12 08:34:04;;;;;;;17.38;10.10;;;;;;;13.32;97.41;98768.56;4238569;27;20031;-71
2022/09/12 08:36:07;;;;;;;15.90;10.18;;;;;;;13.43;98.88;98774.97;4238952;27;20054;-71
2022/09/12 08:38:07;;;;;;;16.27;9.20;;;;;;;13.55;96.21;98771.03;4239406;27;20352;-71
2022/09/12 08:40:15;;;;;;;21.40;10.27;;;;;;;13.62;95.63;98768.28;4238435;27;20027;-71
2022/09/12 08:42:33;;;;;;;12.68;8.50;;;;;;;13.69;95.30;98759.97;4238520;27;20403;-71
2022/09/12 08:44:33;;;;;;;12.02;8.75;;;;;;;13.81;94.61;98760.81;4238436;27;20390;-71
2022/09/12 08:46:59;;;;;;;15.48;9.45;;;;;;;13.87;94.91;98768.38;4238728;27;20058;-71
2022/09/12 08:49:01;;;;;;;15.15;8.48;;;;;;;14.01;94.36;98764.84;4236770;27;20042;-71
2022/09/12 08:51:03;;;;;;;17.02;9.45;;;;;;;14.16;94.13;98763.69;4238376;27;20142;-71
2022/09/12 08:53:13;;;;;;;10.07;8.30;;;;;;;14.25;93.01;98766.09;4238585;27;20426;-72
2022/09/12 08:55:45;;;;;;;13.93;9.07;;;;;;;14.38;91.77;98756.13;4238433;27;20118;-72
2022/09/12 08:57:45;;;;;;;13.10;8.40;;;;;;;14.47;90.99;98755.78;4238264;27;20035;-72
2022/09/12 08:59:47;;;;;;;12.10;8.32;;;;;;;14.50;89.36;98750.22;4237327;27;20047;-72
2022/09/12 09:01:52;;;;;;;11.88;8.30;;;;;;;14.54;86.56;98748.22;4238341;27;20701;-72
2022/09/12 09:04:11;;;;;;;11.82;7.38;;;;;;;14.59;87.61;98752.63;4238776;27;20078;-71
2022/09/12 09:06:40;;;;;;;12.63;8.15;;;;;;;14.66;88.56;98744.25;4237641;27;20432;-72
2022/09/12 09:09:18;;;;;;;11.95;7.93;;;;;;;14.76;88.89;98739.88;4237298;27;20452;-72
2022/09/12 09:11:32;;;;;;;13.20;7.22;;;;;;;14.86;87.54;98744.63;4238368;27;20146;-72
2022/09/12 09:16:23;;;;;;;10.23;6.07;;;;;;;15.02;85.85;98727.47;4237842;27;20557;-72
2022/09/12 09:18:28;;;;;;;9.30;6.18;;;;;;;15.05;86.61;98730.25;4236733;27;20403;-72
2022/09/12 09:21:13;;;;;;;9.30;5.00;;;;;;;15.20;84.97;98733.00;4238173;27;20035;-72
2022/09/12 09:23:32;;;;;;;8.13;5.38;;;;;;;15.34;84.76;98732.97;4167939;28;20055;-72
2022/09/12 09:26:00;;;;;;;10.18;6.22;;;;;;;15.50;83.52;98722.16;4221516;27;20443;-72
2022/09/12 09:28:06;;;;;;;8.73;5.50;;;;;;;15.55;83.17;98718.13;4237779;27;20529;-72
2022/09/12 09:30:23;;;;;;;9.23;5.78;;;;;;;15.58;82.21;98720.13;4236938;27;20277;-72
2022/09/12 09:32:35;;;;;;;8.60;5.78;;;;;;;15.62;82.87;98718.94;4238260;27;20587;-72
2022/09/12 09:34:38;;;;;;;9.95;5.43;;;;;;;15.72;81.81;98718.09;4155680;27;20073;-72
2022/09/12 09:36:48;;;;;;;8.90;5.75;;;;;;;15.78;80.35;98723.22;4238145;27;20429;-72
2022/09/12 09:38:58;;;;;;;7.25;4.53;;;;;;;15.86;79.36;98725.56;4237713;27;20051;-72
2022/09/12 09:41:29;;;;;;;9.15;4.85;;;;;;;15.96;80.00;98723.91;4237458;27;20206;-72
2022/09/12 09:43:30;;;;;;;5.85;3.67;;;;;;;16.07;75.76;98721.06;4237529;27;20066;-72
2022/09/12 09:45:30;;;;;;;6.20;3.92;;;;;;;16.13;74.86;98713.84;4238573;27;20051;-72
2022/09/12 09:47:31;;;;;;;5.25;3.20;;;;;;;16.15;73.57;98717.03;4238425;27;20089;-72
2022/09/12 09:49:33;;;;;;;4.18;3.22;;;;;;;16.16;74.33;98708.25;4237123;27;20085;-72